sensor_id;sensor_type;location;lat;lon;timestamp;pressure;altitude;pressure_sealevel;temperature;humidity
79415;BME280;68864;44.972;19.612;2023-08-01T00:00:09;100254.22;;;20.98;67.76
79415;BME280;68864;44.972;19.612;2023-08-01T00:02:35;100246.34;;;21.06;67.46
79415;BME280;68864;44.972;19.612;2023-08-01T00:05:03;100253.13;;;21.09;67.23
79415;BME280;68864;44.972;19.612;2023-08-01T00:07:31;100254.75;;;21.10;67.26
79415;BME280;68864;44.972;19.612;2023-08-01T00:09:57;100246.59;;;21.12;67.18
79415;BME280;68864;44.972;19.612;2023-08-01T00:12:24;100243.66;;;21.15;67.11
79415;BME280;68864;44.972;19.612;2023-08-01T00:14:51;100242.38;;;21.20;66.95
79415;BME280;68864;44.972;19.612;2023-08-01T00:17:18;100231.44;;;21.02;68.17
79415;BME280;68864;44.972;19.612;2023-08-01T00:19:44;100234.03;;;21.13;67.15
79415;BME280;68864;44.972;19.612;2023-08-01T00:22:11;100235.13;;;21.19;67.00
79415;BME280;68864;44.972;19.612;2023-08-01T00:24:39;100238.75;;;21.19;67.19
79415;BME280;68864;44.972;19.612;2023-08-01T00:27:06;100232.31;;;21.15;67.41
79415;BME280;68864;44.972;19.612;2023-08-01T00:29:35;100228.28;;;21.16;67.10
79415;BME280;68864;44.972;19.612;2023-08-01T00:32:02;100215.72;;;21.17;66.65
79415;BME280;68864;44.972;19.612;2023-08-01T00:34:28;100229.00;;;21.20;67.38
79415;BME280;68864;44.972;19.612;2023-08-01T00:36:56;100215.28;;;21.19;67.13
79415;BME280;68864;44.972;19.612;2023-08-01T00:39:23;100203.97;;;21.15;67.08
79415;BME280;68864;44.972;19.612;2023-08-01T00:41:51;100216.41;;;21.21;67.51
79415;BME280;68864;44.972;19.612;2023-08-01T00:44:17;100216.88;;;21.20;67.27
79415;BME280;68864;44.972;19.612;2023-08-01T00:46:44;100220.66;;;20.97;68.62
79415;BME280;68864;44.972;19.612;2023-08-01T00:49:11;100209.94;;;21.05;68.11
79415;BME280;68864;44.972;19.612;2023-08-01T00:51:38;100217.09;;;21.09;67.81
79415;BME280;68864;44.972;19.612;2023-08-01T00:54:05;100216.22;;;21.12;67.72
79415;BME280;68864;44.972;19.612;2023-08-01T00:56:32;100213.13;;;20.90;68.77
79415;BME280;68864;44.972;19.612;2023-08-01T00:59:00;100211.34;;;20.96;67.30
79415;BME280;68864;44.972;19.612;2023-08-01T01:01:27;100208.25;;;20.91;67.06
79415;BME280;68864;44.972;19.612;2023-08-01T01:03:54;100207.09;;;20.88;66.71
79415;BME280;68864;44.972;19.612;2023-08-01T01:06:25;100207.19;;;20.85;65.83
79415;BME280;68864;44.972;19.612;2023-08-01T01:08:54;100200.13;;;20.77;66.14
79415;BME280;68864;44.972;19.612;2023-08-01T01:11:22;100193.75;;;20.73;66.02
79415;BME280;68864;44.972;19.612;2023-08-01T01:13:48;100194.06;;;20.42;66.73
79415;BME280;68864;44.972;19.612;2023-08-01T01:16:19;100198.31;;;20.50;66.38
79415;BME280;68864;44.972;19.612;2023-08-01T01:18:46;100185.41;;;20.49;66.29
79415;BME280;68864;44.972;19.612;2023-08-01T01:21:14;100185.94;;;20.44;66.32
79415;BME280;68864;44.972;19.612;2023-08-01T01:23:42;100181.13;;;20.41;65.81
79415;BME280;68864;44.972;19.612;2023-08-01T01:26:10;100175.66;;;20.34;65.20
79415;BME280;68864;44.972;19.612;2023-08-01T01:28:37;100178.16;;;20.29;65.16
79415;BME280;68864;44.972;19.612;2023-08-01T01:31:05;100184.34;;;20.23;65.28
79415;BME280;68864;44.972;19.612;2023-08-01T01:33:31;100169.94;;;20.18;65.12
79415;BME280;68864;44.972;19.612;2023-08-01T01:36:00;100169.22;;;20.14;65.16
79415;BME280;68864;44.972;19.612;2023-08-01T01:38:28;100162.31;;;20.15;64.63
79415;BME280;68864;44.972;19.612;2023-08-01T01:40:55;100168.50;;;20.10;64.77
79415;BME280;68864;44.972;19.612;2023-08-01T01:43:22;100146.13;;;19.99;64.19
79415;BME280;68864;44.972;19.612;2023-08-01T01:45:49;100166.19;;;20.05;64.24
79415;BME280;68864;44.972;19.612;2023-08-01T01:48:15;100147.59;;;19.88;64.30
79415;BME280;68864;44.972;19.612;2023-08-01T01:50:42;100163.97;;;19.76;64.70
79415;BME280;68864;44.972;19.612;2023-08-01T01:53:09;100153.31;;;19.84;64.62
79415;BME280;68864;44.972;19.612;2023-08-01T01:55:37;100154.00;;;19.88;64.74
79415;BME280;68864;44.972;19.612;2023-08-01T01:58:04;100161.78;;;19.84;64.56
79415;BME280;68864;44.972;19.612;2023-08-01T02:00:31;100158.25;;;19.80;64.44
79415;BME280;68864;44.972;19.612;2023-08-01T02:02:58;100161.72;;;19.88;64.44
79415;BME280;68864;44.972;19.612;2023-08-01T02:05:25;100163.31;;;19.89;63.88
79415;BME280;68864;44.972;19.612;2023-08-01T02:07:52;100172.59;;;19.89;63.66
79415;BME280;68864;44.972;19.612;2023-08-01T02:10:19;100173.47;;;19.86;63.62
79415;BME280;68864;44.972;19.612;2023-08-01T02:12:47;100155.91;;;19.75;63.26
79415;BME280;68864;44.972;19.612;2023-08-01T02:15:14;100167.22;;;19.75;63.81
79415;BME280;68864;44.972;19.612;2023-08-01T02:17:40;100143.34;;;19.60;63.69
79415;BME280;68864;44.972;19.612;2023-08-01T02:20:08;100142.53;;;19.59;63.75
79415;BME280;68864;44.972;19.612;2023-08-01T02:22:34;100171.38;;;19.70;63.63
79415;BME280;68864;44.972;19.612;2023-08-01T02:25:01;100165.00;;;19.66;63.61
79415;BME280;68864;44.972;19.612;2023-08-01T02:27:28;100160.25;;;19.40;64.32
79415;BME280;68864;44.972;19.612;2023-08-01T02:29:56;100157.66;;;19.49;64.21
79415;BME280;68864;44.972;19.612;2023-08-01T02:32:23;100157.31;;;19.47;64.03
79415;BME280;68864;44.972;19.612;2023-08-01T02:34:49;100148.22;;;19.36;64.18
79415;BME280;68864;44.972;19.612;2023-08-01T02:37:16;100153.81;;;19.39;64.12
79415;BME280;68864;44.972;19.612;2023-08-01T02:39:43;100141.84;;;19.32;64.34
79415;BME280;68864;44.972;19.612;2023-08-01T02:42:10;100152.09;;;19.22;64.61
79415;BME280;68864;44.972;19.612;2023-08-01T02:44:36;100125.28;;;19.11;64.47
79415;BME280;68864;44.972;19.612;2023-08-01T02:47:05;100149.88;;;19.14;65.03
79415;BME280;68864;44.972;19.612;2023-08-01T02:49:32;100149.53;;;19.08;65.05
79415;BME280;68864;44.972;19.612;2023-08-01T02:51:59;100146.94;;;18.97;65.21
79415;BME280;68864;44.972;19.612;2023-08-01T02:54:25;100153.03;;;18.73;66.28
79415;BME280;68864;44.972;19.612;2023-08-01T02:56:52;100133.31;;;18.69;65.73
79415;BME280;68864;44.972;19.612;2023-08-01T02:59:19;100155.59;;;18.87;65.36
79415;BME280;68864;44.972;19.612;2023-08-01T03:01:46;100157.13;;;18.91;64.98
79415;BME280;68864;44.972;19.612;2023-08-01T03:04:14;100147.06;;;18.90;65.33
79415;BME280;68864;44.972;19.612;2023-08-01T03:06:41;100148.22;;;18.93;64.94
79415;BME280;68864;44.972;19.612;2023-08-01T03:09:07;100145.47;;;18.89;65.11
79415;BME280;68864;44.972;19.612;2023-08-01T03:11:35;100154.31;;;18.91;65.20
79415;BME280;68864;44.972;19.612;2023-08-01T03:14:02;100118.78;;;18.71;64.88
79415;BME280;68864;44.972;19.612;2023-08-01T03:16:31;100149.47;;;18.92;64.83
79415;BME280;68864;44.972;19.612;2023-08-01T03:18:57;100143.81;;;18.92;64.96
79415;BME280;68864;44.972;19.612;2023-08-01T03:21:31;100145.97;;;18.84;65.44
79415;BME280;68864;44.972;19.612;2023-08-01T03:23:58;100141.63;;;18.80;65.53
79415;BME280;68864;44.972;19.612;2023-08-01T03:26:25;100136.00;;;18.76;65.40
79415;BME280;68864;44.972;19.612;2023-08-01T03:28:53;100142.16;;;18.71;65.70
79415;BME280;68864;44.972;19.612;2023-08-01T03:31:20;100135.28;;;18.72;65.31
79415;BME280;68864;44.972;19.612;2023-08-01T03:33:47;100135.66;;;18.74;65.33
79415;BME280;68864;44.972;19.612;2023-08-01T03:36:14;100131.16;;;18.77;65.43
79415;BME280;68864;44.972;19.612;2023-08-01T03:38:42;100134.59;;;18.64;65.75
79415;BME280;68864;44.972;19.612;2023-08-01T03:41:08;100145.66;;;18.79;65.22
79415;BME280;68864;44.972;19.612;2023-08-01T03:43:35;100144.47;;;18.76;65.22
79415;BME280;68864;44.972;19.612;2023-08-01T03:46:03;100132.84;;;18.74;65.15
79415;BME280;68864;44.972;19.612;2023-08-01T03:48:30;100136.88;;;18.73;65.32
79415;BME280;68864;44.972;19.612;2023-08-01T03:50:57;100133.25;;;18.73;65.40
79415;BME280;68864;44.972;19.612;2023-08-01T03:53:23;100119.16;;;18.73;65.05
79415;BME280;68864;44.972;19.612;2023-08-01T03:55:52;100096.44;;;18.56;65.26
79415;BME280;68864;44.972;19.612;2023-08-01T03:58:18;100125.22;;;18.71;65.31
79415;BME280;68864;44.972;19.612;2023-08-01T04:00:45;100125.59;;;18.73;65.24
79415;BME280;68864;44.972;19.612;2023-08-01T04:03:12;100131.97;;;18.77;65.29
79415;BME280;68864;44.972;19.612;2023-08-01T04:05:39;100134.28;;;18.82;65.37
79415;BME280;68864;44.972;19.612;2023-08-01T04:08:06;100107.44;;;18.74;65.39
79415;BME280;68864;44.972;19.612;2023-08-01T04:10:33;100124.25;;;18.81;65.35
79415;BME280;68864;44.972;19.612;2023-08-01T04:13:01;100122.53;;;18.87;65.28
79415;BME280;68864;44.972;19.612;2023-08-01T04:15:28;100124.84;;;18.92;65.31
79415;BME280;68864;44.972;19.612;2023-08-01T04:17:55;100112.38;;;18.90;65.10
79415;BME280;68864;44.972;19.612;2023-08-01T04:20:22;100122.22;;;19.01;65.26
79415;BME280;68864;44.972;19.612;2023-08-01T04:22:48;100128.53;;;19.09;64.98
79415;BME280;68864;44.972;19.612;2023-08-01T04:25:15;100118.28;;;19.19;64.61
79415;BME280;68864;44.972;19.612;2023-08-01T04:27:42;100124.78;;;19.16;65.27
79415;BME280;68864;44.972;19.612;2023-08-01T04:30:11;100126.81;;;19.35;64.92
79415;BME280;68864;44.972;19.612;2023-08-01T04:32:38;100125.84;;;19.45;64.18
79415;BME280;68864;44.972;19.612;2023-08-01T04:35:05;100135.44;;;19.51;64.02
79415;BME280;68864;44.972;19.612;2023-08-01T04:37:32;100130.78;;;19.61;64.10
79415;BME280;68864;44.972;19.612;2023-08-01T04:39:59;100134.34;;;19.65;64.20
79415;BME280;68864;44.972;19.612;2023-08-01T04:42:26;100130.72;;;19.64;63.92
79415;BME280;68864;44.972;19.612;2023-08-01T04:44:52;100137.81;;;19.53;64.24
79415;BME280;68864;44.972;19.612;2023-08-01T04:47:20;100130.13;;;19.73;63.76
79415;BME280;68864;44.972;19.612;2023-08-01T04:49:47;100108.94;;;19.61;63.80
79415;BME280;68864;44.972;19.612;2023-08-01T04:52:14;100128.16;;;19.70;63.92
79415;BME280;68864;44.972;19.612;2023-08-01T04:54:41;100124.25;;;19.64;64.09
79415;BME280;68864;44.972;19.612;2023-08-01T04:57:07;100126.28;;;19.63;64.24
79415;BME280;68864;44.972;19.612;2023-08-01T04:59:34;100113.97;;;19.73;64.38
79415;BME280;68864;44.972;19.612;2023-08-01T05:02:01;100119.81;;;19.82;64.73
79415;BME280;68864;44.972;19.612;2023-08-01T05:04:29;100119.22;;;19.91;66.01
79415;BME280;68864;44.972;19.612;2023-08-01T05:06:56;100120.66;;;19.99;65.81
79415;BME280;68864;44.972;19.612;2023-08-01T05:09:23;100116.88;;;20.06;66.69
79415;BME280;68864;44.972;19.612;2023-08-01T05:11:50;100112.28;;;20.12;67.36
79415;BME280;68864;44.972;19.612;2023-08-01T05:14:17;100121.81;;;20.18;67.80
79415;BME280;68864;44.972;19.612;2023-08-01T05:16:43;100114.56;;;20.17;67.78
79415;BME280;68864;44.972;19.612;2023-08-01T05:19:10;100122.03;;;20.27;67.57
79415;BME280;68864;44.972;19.612;2023-08-01T05:21:38;100123.66;;;20.44;68.31
79415;BME280;68864;44.972;19.612;2023-08-01T05:24:05;100121.25;;;20.59;67.78
79415;BME280;68864;44.972;19.612;2023-08-01T05:26:32;100118.25;;;20.66;67.68
79415;BME280;68864;44.972;19.612;2023-08-01T05:28:58;100104.84;;;20.83;67.73
79415;BME280;68864;44.972;19.612;2023-08-01T05:31:25;100106.81;;;20.86;67.41
79415;BME280;68864;44.972;19.612;2023-08-01T05:33:52;100107.50;;;20.90;66.91
79415;BME280;68864;44.972;19.612;2023-08-01T05:36:19;100105.97;;;21.01;66.73
79415;BME280;68864;44.972;19.612;2023-08-01T05:38:47;100102.13;;;21.08;66.67
79415;BME280;68864;44.972;19.612;2023-08-01T05:41:13;100095.66;;;21.08;66.58
79415;BME280;68864;44.972;19.612;2023-08-01T05:43:40;100092.31;;;21.13;65.71
79415;BME280;68864;44.972;19.612;2023-08-01T05:46:07;100105.94;;;21.34;64.81
79415;BME280;68864;44.972;19.612;2023-08-01T05:48:34;100095.94;;;21.42;64.45
79415;BME280;68864;44.972;19.612;2023-08-01T05:51:01;100101.78;;;21.51;63.86
79415;BME280;68864;44.972;19.612;2023-08-01T05:53:28;100082.34;;;21.50;63.93
79415;BME280;68864;44.972;19.612;2023-08-01T05:55:57;100095.34;;;21.76;63.59
79415;BME280;68864;44.972;19.612;2023-08-01T05:58:23;100080.47;;;21.72;63.72
79415;BME280;68864;44.972;19.612;2023-08-01T06:00:50;100105.00;;;21.91;63.03
79415;BME280;68864;44.972;19.612;2023-08-01T06:03:17;100103.78;;;21.92;63.13
79415;BME280;68864;44.972;19.612;2023-08-01T06:05:44;100081.19;;;22.01;62.47
79415;BME280;68864;44.972;19.612;2023-08-01T06:08:10;100099.38;;;22.29;62.66
79415;BME280;68864;44.972;19.612;2023-08-01T06:10:38;100078.03;;;22.25;61.88
79415;BME280;68864;44.972;19.612;2023-08-01T06:13:06;100102.78;;;22.37;61.11
79415;BME280;68864;44.972;19.612;2023-08-01T06:15:33;100075.16;;;22.37;60.57
79415;BME280;68864;44.972;19.612;2023-08-01T06:18:01;100096.16;;;22.65;60.45
79415;BME280;68864;44.972;19.612;2023-08-01T06:20:28;100071.56;;;22.71;59.94
79415;BME280;68864;44.972;19.612;2023-08-01T06:22:55;100096.09;;;22.90;59.09
79415;BME280;68864;44.972;19.612;2023-08-01T06:25:21;100062.66;;;22.94;58.71
79415;BME280;68864;44.972;19.612;2023-08-01T06:27:48;100083.72;;;23.19;58.49
79415;BME280;68864;44.972;19.612;2023-08-01T06:30:17;100083.19;;;23.33;58.13
79415;BME280;68864;44.972;19.612;2023-08-01T06:32:43;100083.13;;;23.46;57.98
79415;BME280;68864;44.972;19.612;2023-08-01T06:35:10;100079.47;;;23.45;56.78
79415;BME280;68864;44.972;19.612;2023-08-01T06:37:37;100081.59;;;23.54;56.89
79415;BME280;68864;44.972;19.612;2023-08-01T06:40:05;100097.56;;;23.73;56.36
79415;BME280;68864;44.972;19.612;2023-08-01T06:42:31;100092.31;;;23.71;55.79
79415;BME280;68864;44.972;19.612;2023-08-01T06:44:58;100085.81;;;23.93;55.42
79415;BME280;68864;44.972;19.612;2023-08-01T06:47:26;100089.44;;;24.24;55.21
79415;BME280;68864;44.972;19.612;2023-08-01T06:49:53;100088.22;;;24.43;54.16
79415;BME280;68864;44.972;19.612;2023-08-01T06:52:20;100051.19;;;24.43;53.91
79415;BME280;68864;44.972;19.612;2023-08-01T06:54:47;100078.19;;;24.79;52.37
79415;BME280;68864;44.972;19.612;2023-08-01T06:57:13;100088.50;;;28.96;42.70
79415;BME280;68864;44.972;19.612;2023-08-01T06:59:40;100072.75;;;35.07;30.35
79415;BME280;68864;44.972;19.612;2023-08-01T07:02:07;100073.47;;;39.05;23.90
79415;BME280;68864;44.972;19.612;2023-08-01T07:04:35;100055.97;;;41.16;22.12
79415;BME280;68864;44.972;19.612;2023-08-01T07:07:03;100067.91;;;43.16;19.50
79415;BME280;68864;44.972;19.612;2023-08-01T07:09:30;100069.59;;;43.54;18.91
79415;BME280;68864;44.972;19.612;2023-08-01T07:11:57;100056.22;;;45.18;16.95
79415;BME280;68864;44.972;19.612;2023-08-01T07:14:23;100050.03;;;46.34;14.90
79415;BME280;68864;44.972;19.612;2023-08-01T07:16:50;100042.56;;;46.33;15.42
79415;BME280;68864;44.972;19.612;2023-08-01T07:19:17;100048.44;;;46.85;15.30
79415;BME280;68864;44.972;19.612;2023-08-01T07:21:45;100048.56;;;47.08;14.32
79415;BME280;68864;44.972;19.612;2023-08-01T07:24:13;100047.97;;;47.21;13.98
79415;BME280;68864;44.972;19.612;2023-08-01T07:26:40;100045.28;;;47.14;13.78
79415;BME280;68864;44.972;19.612;2023-08-01T07:29:07;100037.03;;;47.45;13.34
79415;BME280;68864;44.972;19.612;2023-08-01T07:31:36;100032.75;;;47.69;13.02
79415;BME280;68864;44.972;19.612;2023-08-01T07:34:02;100032.66;;;48.14;13.16
79415;BME280;68864;44.972;19.612;2023-08-01T07:36:29;100031.09;;;48.01;13.23
79415;BME280;68864;44.972;19.612;2023-08-01T07:38:57;100013.13;;;49.18;12.25
79415;BME280;68864;44.972;19.612;2023-08-01T07:41:24;99999.47;;;50.16;11.45
79415;BME280;68864;44.972;19.612;2023-08-01T07:43:51;100010.41;;;49.47;11.95
79415;BME280;68864;44.972;19.612;2023-08-01T07:46:17;100001.00;;;49.51;11.65
79415;BME280;68864;44.972;19.612;2023-08-01T07:48:44;99987.81;;;49.03;11.82
79415;BME280;68864;44.972;19.612;2023-08-01T07:51:11;100005.94;;;50.26;11.37
79415;BME280;68864;44.972;19.612;2023-08-01T07:53:38;100009.53;;;49.84;11.35
79415;BME280;68864;44.972;19.612;2023-08-01T07:56:06;100004.53;;;48.85;11.79
79415;BME280;68864;44.972;19.612;2023-08-01T07:58:34;99983.50;;;48.92;11.69
79415;BME280;68864;44.972;19.612;2023-08-01T08:01:03;99983.31;;;50.19;10.86
79415;BME280;68864;44.972;19.612;2023-08-01T08:03:30;99982.38;;;51.01;10.03
79415;BME280;68864;44.972;19.612;2023-08-01T08:05:56;99976.06;;;48.43;11.09
79415;BME280;68864;44.972;19.612;2023-08-01T08:08:23;99970.66;;;49.91;10.79
79415;BME280;68864;44.972;19.612;2023-08-01T08:10:50;99969.56;;;50.53;10.75
79415;BME280;68864;44.972;19.612;2023-08-01T08:13:18;99964.69;;;51.32;9.68
79415;BME280;68864;44.972;19.612;2023-08-01T08:15:46;99962.44;;;51.17;9.41
79415;BME280;68864;44.972;19.612;2023-08-01T08:18:12;99963.75;;;48.00;12.05
79415;BME280;68864;44.972;19.612;2023-08-01T08:20:44;99966.94;;;44.19;15.05
79415;BME280;68864;44.972;19.612;2023-08-01T08:23:11;99967.88;;;39.65;19.11
79415;BME280;68864;44.972;19.612;2023-08-01T08:25:39;99977.72;;;37.20;22.82
79415;BME280;68864;44.972;19.612;2023-08-01T08:28:06;99957.97;;;35.87;24.92
79415;BME280;68864;44.972;19.612;2023-08-01T08:30:35;99954.22;;;34.48;27.15
79415;BME280;68864;44.972;19.612;2023-08-01T08:33:03;99962.91;;;33.99;27.93
79415;BME280;68864;44.972;19.612;2023-08-01T08:35:32;99954.16;;;33.09;29.59
79415;BME280;68864;44.972;19.612;2023-08-01T08:38:01;99958.69;;;32.36;31.02
79415;BME280;68864;44.972;19.612;2023-08-01T08:40:28;99952.59;;;32.45;31.04
79415;BME280;68864;44.972;19.612;2023-08-01T08:42:57;99954.78;;;32.11;31.11
79415;BME280;68864;44.972;19.612;2023-08-01T08:45:25;99939.66;;;31.66;32.33
79415;BME280;68864;44.972;19.612;2023-08-01T08:47:55;99944.09;;;31.56;32.66
79415;BME280;68864;44.972;19.612;2023-08-01T08:50:24;99958.78;;;31.41;32.90
79415;BME280;68864;44.972;19.612;2023-08-01T08:52:52;99936.22;;;31.12;33.12
79415;BME280;68864;44.972;19.612;2023-08-01T08:55:19;99948.53;;;31.12;33.46
79415;BME280;68864;44.972;19.612;2023-08-01T08:57:49;99940.88;;;30.98;32.60
79415;BME280;68864;44.972;19.612;2023-08-01T09:00:17;99926.47;;;30.98;32.78
79415;BME280;68864;44.972;19.612;2023-08-01T09:02:44;99927.47;;;30.73;32.64
79415;BME280;68864;44.972;19.612;2023-08-01T09:05:12;99923.25;;;30.57;32.84
79415;BME280;68864;44.972;19.612;2023-08-01T09:07:42;99912.56;;;30.69;33.40
79415;BME280;68864;44.972;19.612;2023-08-01T09:10:09;99920.69;;;30.70;32.61
79415;BME280;68864;44.972;19.612;2023-08-01T09:12:36;99915.94;;;30.56;33.80
79415;BME280;68864;44.972;19.612;2023-08-01T09:15:04;99908.75;;;30.35;32.83
79415;BME280;68864;44.972;19.612;2023-08-01T09:17:30;99917.59;;;30.26;33.36
79415;BME280;68864;44.972;19.612;2023-08-01T09:20:03;99911.28;;;30.16;33.66
79415;BME280;68864;44.972;19.612;2023-08-01T09:22:42;99904.72;;;30.10;32.15
79415;BME280;68864;44.972;19.612;2023-08-01T09:25:09;99887.03;;;30.28;32.50
79415;BME280;68864;44.972;19.612;2023-08-01T09:27:36;99901.69;;;30.30;32.17
79415;BME280;68864;44.972;19.612;2023-08-01T09:30:08;99875.50;;;30.17;29.99
79415;BME280;68864;44.972;19.612;2023-08-01T09:32:36;99892.78;;;29.86;31.27
79415;BME280;68864;44.972;19.612;2023-08-01T09:35:04;99873.16;;;29.79;32.30
79415;BME280;68864;44.972;19.612;2023-08-01T09:37:42;99892.47;;;30.15;32.75
79415;BME280;68864;44.972;19.612;2023-08-01T09:40:09;99853.78;;;30.11;31.54
79415;BME280;68864;44.972;19.612;2023-08-01T09:42:40;99873.16;;;30.21;32.22
79415;BME280;68864;44.972;19.612;2023-08-01T09:45:12;99859.44;;;29.99;33.25
79415;BME280;68864;44.972;19.612;2023-08-01T09:47:40;99844.38;;;30.16;32.64
79415;BME280;68864;44.972;19.612;2023-08-01T09:50:08;99853.84;;;30.38;32.58
79415;BME280;68864;44.972;19.612;2023-08-01T09:52:35;99846.94;;;30.02;31.37
79415;BME280;68864;44.972;19.612;2023-08-01T09:55:04;99846.16;;;30.08;31.80
79415;BME280;68864;44.972;19.612;2023-08-01T09:57:31;99852.69;;;30.02;30.62
79415;BME280;68864;44.972;19.612;2023-08-01T09:59:59;99841.69;;;30.01;31.10
79415;BME280;68864;44.972;19.612;2023-08-01T10:02:29;99828.28;;;29.87;31.08
79415;BME280;68864;44.972;19.612;2023-08-01T10:04:58;99813.22;;;29.97;30.40
79415;BME280;68864;44.972;19.612;2023-08-01T10:07:29;99826.03;;;30.02;30.57
79415;BME280;68864;44.972;19.612;2023-08-01T10:09:58;99832.56;;;30.02;31.04
79415;BME280;68864;44.972;19.612;2023-08-01T10:12:27;99815.56;;;29.99;29.57
79415;BME280;68864;44.972;19.612;2023-08-01T10:18:04;99814.75;;;29.98;29.43
79415;BME280;68864;44.972;19.612;2023-08-01T10:20:31;99812.75;;;30.10;29.17
79415;BME280;68864;44.972;19.612;2023-08-01T10:22:59;99807.03;;;30.21;29.56
79415;BME280;68864;44.972;19.612;2023-08-01T10:25:29;99801.22;;;30.05;30.28
79415;BME280;68864;44.972;19.612;2023-08-01T10:28:01;99798.38;;;30.16;29.92
79415;BME280;68864;44.972;19.612;2023-08-01T10:30:28;99797.91;;;30.39;31.04
79415;BME280;68864;44.972;19.612;2023-08-01T10:32:56;99777.19;;;30.08;29.24
79415;BME280;68864;44.972;19.612;2023-08-01T10:35:34;99782.44;;;30.26;30.06
79415;BME280;68864;44.972;19.612;2023-08-01T10:38:05;99779.41;;;30.52;30.24
79415;BME280;68864;44.972;19.612;2023-08-01T10:40:36;99791.22;;;30.65;28.89
79415;BME280;68864;44.972;19.612;2023-08-01T10:43:04;99777.84;;;30.67;28.30
79415;BME280;68864;44.972;19.612;2023-08-01T10:45:31;99780.72;;;30.51;28.90
79415;BME280;68864;44.972;19.612;2023-08-01T10:48:08;99777.84;;;30.56;28.88
79415;BME280;68864;44.972;19.612;2023-08-01T10:50:35;99766.34;;;30.51;28.84
79415;BME280;68864;44.972;19.612;2023-08-01T10:53:04;99737.50;;;30.28;28.64
79415;BME280;68864;44.972;19.612;2023-08-01T10:55:45;99749.00;;;30.23;28.77
79415;BME280;68864;44.972;19.612;2023-08-01T10:58:13;99753.72;;;30.31;29.64
79415;BME280;68864;44.972;19.612;2023-08-01T11:00:41;99718.41;;;30.25;30.40
79415;BME280;68864;44.972;19.612;2023-08-01T11:03:08;99742.47;;;30.28;30.51
79415;BME280;68864;44.972;19.612;2023-08-01T11:05:35;99728.03;;;30.06;30.15
79415;BME280;68864;44.972;19.612;2023-08-01T11:08:03;99726.50;;;30.10;29.83
79415;BME280;68864;44.972;19.612;2023-08-01T11:10:32;99730.41;;;30.13;29.76
79415;BME280;68864;44.972;19.612;2023-08-01T11:12:59;99731.47;;;30.04;28.85
79415;BME280;68864;44.972;19.612;2023-08-01T11:15:27;99745.28;;;30.00;28.49
79415;BME280;68864;44.972;19.612;2023-08-01T11:17:55;99740.03;;;29.93;29.60
79415;BME280;68864;44.972;19.612;2023-08-01T11:20:23;99735.31;;;29.90;29.89
79415;BME280;68864;44.972;19.612;2023-08-01T11:22:52;99728.53;;;29.93;29.75
79415;BME280;68864;44.972;19.612;2023-08-01T11:25:30;99727.47;;;29.90;29.46
79415;BME280;68864;44.972;19.612;2023-08-01T11:27:57;99724.03;;;29.86;29.97
79415;BME280;68864;44.972;19.612;2023-08-01T11:30:31;99719.06;;;29.76;30.38
79415;BME280;68864;44.972;19.612;2023-08-01T11:32:58;99716.97;;;29.71;31.13
79415;BME280;68864;44.972;19.612;2023-08-01T11:35:25;99708.84;;;29.75;29.97
79415;BME280;68864;44.972;19.612;2023-08-01T11:37:52;99698.16;;;29.75;30.52
79415;BME280;68864;44.972;19.612;2023-08-01T11:40:19;99681.91;;;29.55;30.42
79415;BME280;68864;44.972;19.612;2023-08-01T11:42:48;99700.75;;;29.79;29.77
79415;BME280;68864;44.972;19.612;2023-08-01T11:45:16;99673.06;;;29.65;29.20
79415;BME280;68864;44.972;19.612;2023-08-01T11:47:48;99696.13;;;29.92;29.67
79415;BME280;68864;44.972;19.612;2023-08-01T11:50:20;99707.13;;;29.99;30.15
79415;BME280;68864;44.972;19.612;2023-08-01T11:52:47;99696.69;;;29.96;30.59
79415;BME280;68864;44.972;19.612;2023-08-01T11:55:19;99673.09;;;29.76;30.55
79415;BME280;68864;44.972;19.612;2023-08-01T11:57:52;99683.31;;;29.88;29.95
79415;BME280;68864;44.972;19.612;2023-08-01T12:00:21;99698.00;;;30.01;28.47
79415;BME280;68864;44.972;19.612;2023-08-01T12:02:49;99687.00;;;30.05;27.98
79415;BME280;68864;44.972;19.612;2023-08-01T12:05:21;99688.13;;;30.24;28.79
79415;BME280;68864;44.972;19.612;2023-08-01T12:07:48;99680.53;;;30.27;26.99
79415;BME280;68864;44.972;19.612;2023-08-01T12:10:15;99670.59;;;30.39;27.45
79415;BME280;68864;44.972;19.612;2023-08-01T12:12:44;99678.44;;;30.33;27.26
79415;BME280;68864;44.972;19.612;2023-08-01T12:15:11;99672.69;;;30.22;27.85
79415;BME280;68864;44.972;19.612;2023-08-01T12:17:38;99670.88;;;30.24;28.37
79415;BME280;68864;44.972;19.612;2023-08-01T12:20:07;99672.16;;;30.34;28.10
79415;BME280;68864;44.972;19.612;2023-08-01T12:22:35;99659.59;;;30.26;28.56
79415;BME280;68864;44.972;19.612;2023-08-01T12:25:02;99661.69;;;30.15;28.11
79415;BME280;68864;44.972;19.612;2023-08-01T12:27:29;99654.13;;;30.23;27.66
79415;BME280;68864;44.972;19.612;2023-08-01T12:29:55;99642.63;;;30.23;27.74
79415;BME280;68864;44.972;19.612;2023-08-01T12:32:22;99645.22;;;30.32;27.57
79415;BME280;68864;44.972;19.612;2023-08-01T12:34:48;99636.09;;;30.28;26.84
79415;BME280;68864;44.972;19.612;2023-08-01T12:37:17;99635.56;;;30.35;26.18
79415;BME280;68864;44.972;19.612;2023-08-01T12:39:43;99632.69;;;30.24;26.93
79415;BME280;68864;44.972;19.612;2023-08-01T12:42:10;99646.81;;;30.22;27.58
79415;BME280;68864;44.972;19.612;2023-08-01T12:44:37;99627.47;;;30.11;28.04
79415;BME280;68864;44.972;19.612;2023-08-01T12:47:04;99619.88;;;30.08;28.51